createdAt,value
2022-08-11T00:01:09.177Z,7.80
2022-08-11T00:04:02.896Z,16.50
2022-08-11T00:06:35.689Z,10.40
2022-08-11T00:09:13.532Z,9.70
2022-08-11T00:11:58.683Z,7.90
2022-08-11T00:14:37.495Z,9.30
2022-08-11T00:17:13.855Z,8.40
2022-08-11T00:20:12.826Z,9.50
2022-08-11T00:22:43.729Z,11.00
2022-08-11T00:25:21.435Z,8.60
2022-08-11T00:27:52.482Z,10.90
2022-08-11T00:30:24.176Z,11.00
2022-08-11T00:32:59.164Z,9.30
2022-08-11T00:35:54.181Z,10.30
2022-08-11T00:38:32.452Z,8.20
2022-08-11T00:41:26.056Z,10.20
2022-08-11T00:44:32.539Z,8.50
2022-08-11T00:47:33.721Z,10.70
2022-08-11T00:50:31.252Z,9.90
2022-08-11T00:53:36.204Z,10.00
2022-08-11T00:57:09.275Z,9.50
2022-08-11T01:00:15.866Z,8.60
2022-08-11T01:02:54.205Z,9.50
2022-08-11T01:06:02.964Z,9.20
2022-08-11T01:09:22.293Z,8.80
2022-08-11T01:12:25.490Z,9.00
2022-08-11T01:15:29.634Z,9.10
2022-08-11T01:18:56.365Z,8.30
2022-08-11T01:22:10.276Z,7.60
2022-08-11T01:25:28.001Z,8.20
2022-08-11T01:28:57.226Z,9.00
2022-08-11T01:31:48.637Z,7.80
2022-08-11T01:35:24.720Z,8.70
2022-08-11T01:39:00.804Z,8.20
2022-08-11T01:42:14.812Z,8.60
2022-08-11T01:45:27.099Z,7.40
2022-08-11T01:48:44.293Z,9.00
2022-08-11T01:51:32.855Z,10.20
2022-08-11T01:54:43.511Z,10.00
2022-08-11T01:57:54.642Z,9.70
2022-08-11T02:00:31.184Z,8.40
2022-08-11T02:03:17.727Z,10.10
2022-08-11T02:06:54.935Z,10.10
2022-08-11T02:10:50.711Z,8.10
2022-08-11T02:14:01.282Z,7.40
2022-08-11T02:17:44.921Z,8.90
2022-08-11T02:20:50.376Z,8.30
2022-08-11T02:24:05.712Z,9.80
2022-08-11T02:26:54.937Z,9.70
2022-08-11T02:29:38.665Z,9.40
2022-08-11T02:33:20.722Z,8.80
2022-08-11T02:36:10.708Z,9.00
2022-08-11T02:38:51.842Z,9.00
2022-08-11T02:42:32.096Z,9.40
2022-08-11T02:45:36.442Z,10.30
2022-08-11T02:49:05.803Z,8.90
2022-08-11T02:52:19.084Z,7.80
2022-08-11T02:59:34.317Z,9.20
2022-08-11T03:02:56.402Z,7.40
2022-08-11T03:06:00.708Z,7.60
2022-08-11T03:08:51.646Z,7.10
2022-08-11T03:12:50.282Z,10.40
2022-08-11T03:15:50.155Z,9.90
2022-08-11T03:18:42.077Z,8.50
2022-08-11T03:21:22.130Z,7.80
2022-08-11T03:24:19.733Z,9.10
2022-08-11T03:27:05.478Z,9.30
2022-08-11T03:30:12.404Z,8.20
2022-08-11T03:33:38.858Z,9.90
2022-08-11T03:37:14.902Z,8.70
2022-08-11T03:40:00.771Z,8.90
2022-08-11T03:43:01.341Z,8.20
2022-08-11T03:46:06.799Z,8.80
2022-08-11T03:49:16.846Z,8.40
2022-08-11T03:52:42.733Z,8.30
2022-08-11T03:55:50.575Z,9.90
2022-08-11T03:58:23.522Z,9.40
2022-08-11T04:01:06.656Z,8.10
2022-08-11T04:04:01.156Z,10.10
2022-08-11T04:07:22.894Z,11.30
2022-08-11T04:10:51.215Z,9.10
2022-08-11T04:14:39.695Z,9.10
2022-08-11T04:17:44.859Z,9.90
2022-08-11T04:20:51.147Z,7.70
2022-08-11T04:24:13.108Z,9.40
2022-08-11T04:27:52.271Z,11.90
2022-08-11T04:31:11.463Z,7.90
2022-08-11T04:34:08.824Z,9.90
2022-08-11T04:37:34.979Z,9.70
2022-08-11T04:40:51.787Z,8.50
2022-08-11T04:44:05.692Z,8.70
2022-08-11T04:47:13.306Z,9.80
2022-08-11T04:50:17.564Z,8.40
2022-08-11T04:53:52.541Z,7.70
2022-08-11T04:56:50.735Z,11.60
2022-08-11T05:00:30.382Z,7.10
2022-08-11T05:03:49.163Z,8.40
2022-08-11T05:06:36.441Z,7.70
2022-08-11T05:09:25.432Z,9.10
2022-08-11T05:12:33.519Z,6.70
2022-08-11T05:15:24.022Z,8.20
2022-08-11T05:18:37.490Z,9.00
2022-08-11T05:21:44.411Z,9.90
2022-08-11T05:24:45.724Z,7.50
2022-08-11T05:27:42.520Z,7.00
2022-08-11T05:30:31.570Z,9.30
2022-08-11T05:33:28.025Z,8.60
2022-08-11T05:36:06.742Z,7.60
2022-08-11T05:38:57.982Z,7.00
2022-08-11T05:41:48.354Z,7.30
2022-08-11T05:44:40.413Z,7.00
2022-08-11T05:47:32.569Z,6.40
2022-08-11T05:50:32.750Z,8.50
2022-08-11T05:53:23.851Z,7.10
2022-08-11T05:56:15.400Z,9.50
2022-08-11T05:58:53.995Z,13.20
2022-08-11T06:01:35.489Z,8.80
2022-08-11T06:04:20.031Z,7.20
2022-08-11T06:07:12.498Z,7.50
2022-08-11T06:09:51.017Z,7.10
2022-08-11T06:12:33.946Z,7.40
2022-08-11T06:15:12.062Z,7.70
2022-08-11T06:17:46.729Z,8.50
2022-08-11T06:20:24.444Z,6.00
2022-08-11T06:23:16.198Z,7.40
2022-08-11T06:25:46.092Z,7.10
2022-08-11T06:28:20.352Z,7.10
2022-08-11T06:30:56.010Z,6.40
2022-08-11T06:33:44.476Z,10.90
2022-08-11T06:36:46.133Z,7.60
2022-08-11T06:39:54.923Z,6.90
2022-08-11T06:43:03.494Z,6.30
2022-08-11T06:46:06.166Z,6.40
2022-08-11T06:48:36.614Z,5.70
2022-08-11T06:51:12.747Z,6.70
2022-08-11T06:57:30.347Z,6.70
2022-08-11T07:00:33.007Z,7.10
2022-08-11T07:03:09.186Z,5.50
2022-08-11T07:06:16.380Z,6.50
2022-08-11T07:10:10.421Z,6.40
2022-08-11T07:13:06.476Z,6.20
2022-08-11T07:16:11.575Z,6.40
2022-08-11T07:19:04.926Z,5.10
2022-08-11T07:22:02.650Z,6.00
2022-08-11T07:25:18.997Z,6.00
2022-08-11T07:28:56.927Z,7.10
2022-08-11T07:31:46.330Z,4.40
2022-08-11T07:34:38.116Z,4.60
2022-08-11T07:37:21.184Z,3.80
2022-08-11T07:40:05.259Z,4.40
2022-08-11T07:42:50.225Z,5.80
2022-08-11T07:45:42.351Z,5.10
2022-08-11T07:48:37.393Z,10.50
2022-08-11T07:51:26.442Z,5.90
2022-08-11T07:53:58.419Z,4.40
2022-08-11T07:57:07.182Z,4.30
2022-08-11T08:00:03.432Z,9.20
2022-08-11T08:03:11.313Z,5.00
2022-08-11T08:06:03.482Z,4.80
2022-08-11T08:09:27.055Z,3.40
2022-08-11T08:13:25.991Z,4.00
2022-08-11T08:16:25.653Z,3.00
2022-08-11T08:19:22.491Z,3.90
2022-08-11T08:22:57.514Z,4.20
2022-08-11T08:25:40.085Z,3.00
2022-08-11T08:29:27.489Z,3.60
2022-08-11T08:32:00.502Z,3.70
2022-08-11T08:34:33.658Z,3.00
2022-08-11T08:37:46.980Z,3.00
2022-08-11T08:40:17.152Z,4.30
2022-08-11T08:43:06.845Z,3.60
2022-08-11T08:45:37.828Z,3.90
2022-08-11T08:48:21.874Z,3.90
2022-08-11T08:52:01.268Z,4.00
2022-08-11T08:55:25.572Z,3.10
2022-08-11T08:58:28.630Z,3.50
2022-08-11T09:01:01.583Z,3.50
2022-08-11T09:04:06.753Z,4.00
2022-08-11T09:06:50.043Z,3.30
2022-08-11T09:10:11.922Z,3.20
2022-08-11T09:12:51.215Z,5.90
2022-08-11T09:15:31.747Z,2.00
2022-08-11T09:18:33.869Z,3.40
2022-08-11T09:24:37.494Z,3.10
2022-08-11T09:29:01.078Z,3.50
2022-08-11T09:32:36.597Z,2.40
2022-08-11T09:37:28.320Z,3.70
2022-08-11T09:41:14.859Z,2.60
